Time;durP1;ratioP1;P1;durP2;ratioP2;P2;SDS_P1;SDS_P2;PMS_P1;PMS_P2;Temp;Humidity;BMP_temperature;BMP_pressure;BME280_temperature;BME280_humidity;BME280_pressure;Samples;Min_cycle;Max_cycle;Signal;HPM_P1;HPM_P2
2022/12/13 00:01:32;;;;;;;11.40;7.30;;;;;;;;;;5092693;28;20547;-61
2022/12/13 00:04:02;;;;;;;8.48;6.53;;;;;;;;;;5092584;28;20272;-62
2022/12/13 00:06:30;;;;;;;7.50;6.30;;;;;;;;;;5092852;28;20631;-62
2022/12/13 00:08:57;;;;;;;8.32;6.45;;;;;;;;;;5092852;28;20200;-62
2022/12/13 00:11:24;;;;;;;7.95;6.32;;;;;;;;;;5092697;28;20272;-61
2022/12/13 00:13:51;;;;;;;8.13;5.50;;;;;;;;;;5092597;28;20193;-62
2022/12/13 00:16:21;;;;;;;7.82;6.03;;;;;;;;;;5092377;28;20225;-62
2022/12/13 00:18:48;;;;;;;8.00;5.93;;;;;;;;;;5092320;28;20641;-62
2022/12/13 00:21:17;;;;;;;8.63;6.40;;;;;;;;;;5092629;28;20190;-62
2022/12/13 00:23:44;;;;;;;7.20;5.90;;;;;;;;;;5092614;28;20220;-60
2022/12/13 00:26:13;;;;;;;7.75;6.05;;;;;;;;;;5092421;28;20201;-60
2022/12/13 00:28:40;;;;;;;10.70;6.53;;;;;;;;;;5092333;28;20193;-59
2022/12/13 00:31:07;;;;;;;6.75;6.15;;;;;;;;;;5094380;28;20190;-59
2022/12/13 00:33:34;;;;;;;8.82;6.50;;;;;;;;;;5095868;28;20193;-60
2022/12/13 00:36:03;;;;;;;7.47;6.20;;;;;;;;;;5095983;28;20217;-60
2022/12/13 00:38:32;;;;;;;7.22;6.25;;;;;;;;;;5095743;28;20234;-60
2022/12/13 00:40:58;;;;;;;8.40;6.50;;;;;;;;;;5095962;28;20193;-62
2022/12/13 00:43:25;;;;;;;8.23;5.88;;;;;;;;;;5095833;28;20191;-62
2022/12/13 00:45:52;;;;;;;11.23;6.55;;;;;;;;;;5095480;28;20203;-62
2022/12/13 00:48:19;;;;;;;8.93;6.07;;;;;;;;;;5095893;28;20200;-62
2022/12/13 00:50:46;;;;;;;8.48;6.30;;;;;;;;;;5095767;28;20277;-62
2022/12/13 00:53:13;;;;;;;7.13;5.70;;;;;;;;;;5095704;28;20619;-62
2022/12/13 00:55:42;;;;;;;7.93;6.00;;;;;;;;;;5095539;28;20226;-62
2022/12/13 00:58:09;;;;;;;9.75;6.50;;;;;;;;;;5095429;28;20186;-62
2022/12/13 01:00:36;;;;;;;9.07;6.80;;;;;;;;;;5095411;28;20195;-61
2022/12/13 01:03:19;;;;;;;8.18;6.22;;;;;;;;;;5095524;28;20189;-62
2022/12/13 01:05:45;;;;;;;6.82;6.13;;;;;;;;;;5095467;28;20292;-62
2022/12/13 01:08:13;;;;;;;9.95;6.90;;;;;;;;;;5095274;28;20189;-62
2022/12/13 01:10:43;;;;;;;7.30;6.38;;;;;;;;;;5095749;28;20193;-62
2022/12/13 01:13:10;;;;;;;7.80;6.40;;;;;;;;;;5095398;28;20189;-62
2022/12/13 01:15:40;;;;;;;8.40;6.47;;;;;;;;;;5095235;28;20684;-62
2022/12/13 01:18:07;;;;;;;9.18;6.78;;;;;;;;;;5095128;28;20247;-62
2022/12/13 01:20:34;;;;;;;7.70;5.82;;;;;;;;;;5095154;28;20190;-62
2022/12/13 01:23:01;;;;;;;7.38;6.05;;;;;;;;;;5095007;28;20221;-62
2022/12/13 01:25:28;;;;;;;7.32;5.72;;;;;;;;;;5094978;28;20186;-62
2022/12/13 01:27:57;;;;;;;9.32;6.57;;;;;;;;;;5095086;28;20185;-62
2022/12/13 01:30:23;;;;;;;8.82;6.93;;;;;;;;;;5095058;28;20195;-62
2022/12/13 01:32:50;;;;;;;7.75;6.43;;;;;;;;;;5094758;28;20671;-62
2022/12/13 01:35:17;;;;;;;8.93;7.05;;;;;;;;;;5094736;28;20209;-62
2022/12/13 01:37:44;;;;;;;9.75;7.00;;;;;;;;;;5094622;28;20225;-62
2022/12/13 01:40:12;;;;;;;9.90;6.85;;;;;;;;;;5094890;28;20188;-62
2022/12/13 01:42:39;;;;;;;9.90;7.22;;;;;;;;;;5094195;28;20296;-62
2022/12/13 01:45:16;;;;;;;7.53;5.97;;;;;;;;;;5094764;28;20189;-62
2022/12/13 01:47:44;;;;;;;9.30;7.10;;;;;;;;;;5094393;28;20323;-62
2022/12/13 01:50:12;;;;;;;10.85;7.45;;;;;;;;;;5094575;28;20284;-62
2022/12/13 01:52:40;;;;;;;9.02;6.30;;;;;;;;;;5094392;28;20194;-62
2022/12/13 01:55:08;;;;;;;9.20;6.38;;;;;;;;;;5094579;28;20308;-62
2022/12/13 01:57:38;;;;;;;11.70;7.28;;;;;;;;;;5094480;28;20195;-62
2022/12/13 02:00:05;;;;;;;7.75;5.80;;;;;;;;;;5094423;28;20186;-62
2022/12/13 02:02:34;;;;;;;8.23;6.20;;;;;;;;;;5094316;28;20219;-62
2022/12/13 02:05:04;;;;;;;9.48;6.25;;;;;;;;;;5094117;28;20235;-62
2022/12/13 02:07:33;;;;;;;8.45;6.35;;;;;;;;;;5094566;28;20224;-61
2022/12/13 02:10:01;;;;;;;6.28;5.43;;;;;;;;;;5094246;28;20189;-62
2022/12/13 02:12:29;;;;;;;7.55;5.70;;;;;;;;;;5094181;28;20621;-62
2022/12/13 02:14:57;;;;;;;9.20;6.75;;;;;;;;;;5093906;28;20303;-62
2022/12/13 02:17:28;;;;;;;9.32;6.45;;;;;;;;;;5093870;28;20192;-62
2022/12/13 02:20:10;;;;;;;8.68;5.90;;;;;;;;;;5094182;28;20201;-61
2022/12/13 02:22:49;;;;;;;9.98;6.60;;;;;;;;;;5091185;28;20630;-62
2022/12/13 02:25:33;;;;;;;8.95;6.25;;;;;;;;;;5093882;28;20193;-62
2022/12/13 02:28:06;;;;;;;10.05;6.65;;;;;;;;;;5093315;28;20192;-62
2022/12/13 02:30:38;;;;;;;9.57;7.72;;;;;;;;;;5093911;28;20284;-62
2022/12/13 02:33:13;;;;;;;9.35;6.60;;;;;;;;;;5093876;28;20198;-62
2022/12/13 02:35:43;;;;;;;9.43;7.28;;;;;;;;;;5093689;28;20299;-62
2022/12/13 02:38:15;;;;;;;10.85;8.32;;;;;;;;;;5093547;28;20186;-62
2022/12/13 02:40:44;;;;;;;9.98;7.25;;;;;;;;;;5093775;28;20194;-62
2022/12/13 02:43:14;;;;;;;8.57;7.07;;;;;;;;;;5093690;28;20195;-62
2022/12/13 02:45:46;;;;;;;11.55;8.25;;;;;;;;;;5093368;28;20287;-62
2022/12/13 02:48:14;;;;;;;10.43;7.00;;;;;;;;;;5093679;28;20227;-61
2022/12/13 02:50:42;;;;;;;10.02;7.97;;;;;;;;;;5093341;28;20193;-62
2022/12/13 02:53:10;;;;;;;9.95;7.03;;;;;;;;;;5093245;28;20193;-62
2022/12/13 02:55:38;;;;;;;13.52;8.75;;;;;;;;;;5092887;28;20336;-62
2022/12/13 02:58:05;;;;;;;11.77;8.35;;;;;;;;;;5093362;28;20277;-61
2022/12/13 03:00:37;;;;;;;11.38;8.40;;;;;;;;;;5093316;28;20196;-62
2022/12/13 03:03:13;;;;;;;11.13;8.63;;;;;;;;;;5093250;28;20195;-62
2022/12/13 03:08:32;;;;;;;14.35;8.77;;;;;;;;;;5093204;28;20196;-62
2022/12/13 03:11:02;;;;;;;13.75;10.40;;;;;;;;;;5093169;28;20221;-62
2022/12/13 03:13:36;;;;;;;16.17;9.73;;;;;;;;;;5093098;28;20188;-62
2022/12/13 03:16:06;;;;;;;14.60;9.05;;;;;;;;;;5092983;28;20270;-62
2022/12/13 03:18:35;;;;;;;15.05;9.35;;;;;;;;;;5092881;28;20279;-62
2022/12/13 03:21:04;;;;;;;12.15;9.18;;;;;;;;;;5093095;28;20555;-62
2022/12/13 03:23:31;;;;;;;14.60;9.75;;;;;;;;;;5093042;28;20185;-62
2022/12/13 03:26:00;;;;;;;13.13;9.63;;;;;;;;;;5092965;28;20239;-62
2022/12/13 03:28:27;;;;;;;15.15;10.00;;;;;;;;;;5092824;28;20195;-62
2022/12/13 03:30:54;;;;;;;13.13;9.18;;;;;;;;;;5093112;28;20277;-62
2022/12/13 03:33:21;;;;;;;15.40;10.30;;;;;;;;;;5092836;28;20194;-62
2022/12/13 03:35:49;;;;;;;16.27;10.80;;;;;;;;;;5092957;28;20630;-62
2022/12/13 03:38:18;;;;;;;11.43;9.20;;;;;;;;;;5092801;28;20189;-62
2022/12/13 03:40:45;;;;;;;13.70;10.18;;;;;;;;;;5092707;28;20189;-61
2022/12/13 03:43:12;;;;;;;15.98;10.93;;;;;;;;;;5092976;28;20196;-62
2022/12/13 03:45:39;;;;;;;15.52;10.40;;;;;;;;;;5093067;28;20190;-62
2022/12/13 03:48:06;;;;;;;14.10;10.70;;;;;;;;;;5092803;28;20302;-62
2022/12/13 03:50:33;;;;;;;14.77;11.20;;;;;;;;;;5092853;28;20189;-62
2022/12/13 03:53:02;;;;;;;16.08;11.00;;;;;;;;;;5092757;28;20187;-62
2022/12/13 03:55:29;;;;;;;15.05;10.88;;;;;;;;;;5092497;28;20571;-62
2022/12/13 03:57:56;;;;;;;16.02;11.48;;;;;;;;;;5092760;28;20276;-62
2022/12/13 04:00:23;;;;;;;17.38;10.02;;;;;;;;;;5092788;28;20194;-62
2022/12/13 04:02:50;;;;;;;15.75;10.90;;;;;;;;;;5092672;28;20190;-62
2022/12/13 04:05:17;;;;;;;17.42;10.98;;;;;;;;;;5093535;28;20572;-62
2022/12/13 04:07:44;;;;;;;16.17;11.73;;;;;;;;;;5096411;28;20185;-62
2022/12/13 04:10:12;;;;;;;16.67;10.60;;;;;;;;;;5096332;28;20286;-62
2022/12/13 04:15:24;;;;;;;15.07;10.40;;;;;;;;;;5096384;28;20192;-62
2022/12/13 04:17:50;;;;;;;15.25;11.40;;;;;;;;;;5096293;28;20280;-62
2022/12/13 04:20:17;;;;;;;17.42;11.10;;;;;;;;;;5096141;28;20708;-61
2022/12/13 04:22:44;;;;;;;16.95;11.40;;;;;;;;;;5096379;28;20215;-62
2022/12/13 04:25:13;;;;;;;14.70;10.75;;;;;;;;;;5096366;28;20273;-62
2022/12/13 04:27:40;;;;;;;17.52;11.55;;;;;;;;;;5096143;28;20293;-62
2022/12/13 04:30:08;;;;;;;17.33;11.57;;;;;;;;;;5096106;28;20201;-62
2022/12/13 04:32:35;;;;;;;16.05;12.00;;;;;;;;;;5095918;28;20189;-62
2022/12/13 04:35:02;;;;;;;15.95;11.13;;;;;;;;;;5095873;28;20189;-62
2022/12/13 04:37:28;;;;;;;15.55;11.48;;;;;;;;;;5095909;28;20656;-62
2022/12/13 04:39:55;;;;;;;17.25;10.68;;;;;;;;;;5095956;28;20196;-62
2022/12/13 04:42:24;;;;;;;15.85;10.93;;;;;;;;;;5095921;28;20529;-62
2022/12/13 04:44:50;;;;;;;17.95;11.43;;;;;;;;;;5095826;28;20232;-62
2022/12/13 04:47:17;;;;;;;19.60;12.45;;;;;;;;;;5095538;28;20253;-61
2022/12/13 04:49:44;;;;;;;16.40;11.70;;;;;;;;;;5095892;28;20189;-62
2022/12/13 04:52:11;;;;;;;17.20;12.25;;;;;;;;;;5095799;28;20529;-62
2022/12/13 04:54:38;;;;;;;16.95;11.60;;;;;;;;;;5095645;28;20193;-62
2022/12/13 04:57:06;;;;;;;17.85;12.45;;;;;;;;;;5095482;28;20221;-62
2022/12/13 04:59:35;;;;;;;16.08;12.05;;;;;;;;;;5095597;28;20189;-62
2022/12/13 05:02:02;;;;;;;18.63;12.82;;;;;;;;;;5095822;28;20640;-62
2022/12/13 05:04:29;;;;;;;15.68;11.38;;;;;;;;;;5095564;28;20284;-62
2022/12/13 05:06:56;;;;;;;16.10;11.95;;;;;;;;;;5095367;28;20292;-60
2022/12/13 05:09:23;;;;;;;17.33;12.52;;;;;;;;;;5095344;28;20596;-62
2022/12/13 05:11:50;;;;;;;16.58;11.85;;;;;;;;;;5095313;28;20193;-62
2022/12/13 05:14:17;;;;;;;16.27;11.27;;;;;;;;;;5095186;28;20238;-62
2022/12/13 05:16:45;;;;;;;15.32;11.82;;;;;;;;;;5093971;28;20639;-62
2022/12/13 05:19:12;;;;;;;15.10;10.63;;;;;;;;;;5095328;28;20281;-62
2022/12/13 05:21:39;;;;;;;15.88;11.38;;;;;;;;;;5095160;28;20185;-62
2022/12/13 05:24:06;;;;;;;17.55;11.70;;;;;;;;;;5094973;28;20658;-62
2022/12/13 05:26:33;;;;;;;15.85;10.88;;;;;;;;;;5094892;28;20254;-61
2022/12/13 05:29:00;;;;;;;16.85;12.13;;;;;;;;;;5094992;28;20185;-62
2022/12/13 05:31:27;;;;;;;16.05;11.52;;;;;;;;;;5094758;28;20196;-62
2022/12/13 05:33:55;;;;;;;13.88;10.15;;;;;;;;;;5094687;28;20646;-62
2022/12/13 05:36:24;;;;;;;16.83;12.05;;;;;;;;;;5094783;28;20209;-62
2022/12/13 05:38:51;;;;;;;13.30;9.88;;;;;;;;;;5094770;28;20311;-62
2022/12/13 05:41:19;;;;;;;16.17;10.30;;;;;;;;;;5094787;28;20258;-62
2022/12/13 05:43:47;;;;;;;15.07;10.52;;;;;;;;;;5094679;28;20184;-62
2022/12/13 05:46:14;;;;;;;16.10;9.55;;;;;;;;;;5094592;28;20316;-62
2022/12/13 05:48:42;;;;;;;17.08;10.90;;;;;;;;;;5094635;28;20287;-62
2022/12/13 05:51:11;;;;;;;15.25;10.80;;;;;;;;;;5094544;28;20193;-62
2022/12/13 05:53:38;;;;;;;13.82;9.77;;;;;;;;;;5094377;28;20218;-63
2022/12/13 05:56:05;;;;;;;13.63;10.00;;;;;;;;;;5094329;28;20297;-62
2022/12/13 05:58:32;;;;;;;15.30;10.10;;;;;;;;;;5094201;28;20203;-62
2022/12/13 06:01:04;;;;;;;13.95;9.73;;;;;;;;;;5094474;28;20198;-60
2022/12/13 06:03:31;;;;;;;13.20;10.75;;;;;;;;;;5094364;28;20280;-62
2022/12/13 06:06:00;;;;;;;17.30;11.07;;;;;;;;;;5094040;28;20195;-62
2022/12/13 06:08:29;;;;;;;14.68;10.45;;;;;;;;;;5094005;28;20283;-62
2022/12/13 06:10:56;;;;;;;17.05;13.15;;;;;;;;;;5094016;28;20592;-62
2022/12/13 06:13:23;;;;;;;14.02;10.02;;;;;;;;;;5094243;28;20185;-62
2022/12/13 06:15:50;;;;;;;15.18;10.27;;;;;;;;;;5094023;28;20212;-62
2022/12/13 06:18:17;;;;;;;15.90;10.88;;;;;;;;;;5093990;28;20195;-62
2022/12/13 06:20:45;;;;;;;14.85;10.45;;;;;;;;;;5093878;28;20248;-62
2022/12/13 06:23:12;;;;;;;17.17;10.80;;;;;;;;;;5093610;28;20285;-62
2022/12/13 06:25:40;;;;;;;14.55;10.35;;;;;;;;;;5093800;28;20268;-62
2022/12/13 06:28:07;;;;;;;14.75;10.27;;;;;;;;;;5093545;28;20296;-62
2022/12/13 06:30:34;;;;;;;14.63;10.15;;;;;;;;;;5093841;28;20530;-61
2022/12/13 06:33:01;;;;;;;14.75;10.70;;;;;;;;;;5093653;28;20186;-62
2022/12/13 06:35:27;;;;;;;14.88;10.65;;;;;;;;;;5093652;28;20185;-62
2022/12/13 06:37:54;;;;;;;12.93;8.90;;;;;;;;;;5093297;28;20244;-62
2022/12/13 06:40:21;;;;;;;16.63;10.80;;;;;;;;;;5093511;28;20271;-62
2022/12/13 06:42:50;;;;;;;12.07;9.38;;;;;;;;;;5093501;28;20199;-62
2022/12/13 06:45:17;;;;;;;18.92;11.18;;;;;;;;;;5093432;28;20279;-62
2022/12/13 06:47:44;;;;;;;14.57;10.73;;;;;;;;;;5093287;28;20682;-62
2022/12/13 06:50:11;;;;;;;15.23;11.18;;;;;;;;;;5093336;28;20188;-62
2022/12/13 06:52:37;;;;;;;14.55;10.65;;;;;;;;;;5093174;28;20726;-62
2022/12/13 06:55:05;;;;;;;13.90;10.65;;;;;;;;;;5093365;28;20197;-62
2022/12/13 06:57:32;;;;;;;15.82;11.18;;;;;;;;;;5093110;28;20218;-62
2022/12/13 07:00:02;;;;;;;14.65;10.10;;;;;;;;;;5093079;28;20190;-62
2022/12/13 07:02:29;;;;;;;17.20;11.43;;;;;;;;;;5093117;28;20239;-62
2022/12/13 07:04:56;;;;;;;15.27;10.40;;;;;;;;;;5092964;28;20581;-62
2022/12/13 07:07:24;;;;;;;17.35;11.52;;;;;;;;;;5092861;28;20281;-62
2022/12/13 07:09:51;;;;;;;15.55;10.18;;;;;;;;;;5093379;28;20197;-62
2022/12/13 07:12:19;;;;;;;14.45;10.65;;;;;;;;;;5093187;28;20711;-62
2022/12/13 07:14:46;;;;;;;15.00;11.25;;;;;;;;;;5092902;28;20196;-62
2022/12/13 07:17:14;;;;;;;14.15;10.32;;;;;;;;;;5092700;28;20214;-62
2022/12/13 07:19:41;;;;;;;15.52;10.30;;;;;;;;;;5092809;28;20258;-62
2022/12/13 07:22:08;;;;;;;17.40;11.35;;;;;;;;;;5093013;28;20186;-62
2022/12/13 07:24:35;;;;;;;16.40;12.40;;;;;;;;;;5092634;28;20667;-62
2022/12/13 07:27:02;;;;;;;16.25;11.52;;;;;;;;;;5092902;28;20555;-62
2022/12/13 07:29:29;;;;;;;18.05;12.13;;;;;;;;;;5093026;28;20283;-62
2022/12/13 07:31:56;;;;;;;17.02;11.20;;;;;;;;;;5092901;28;20196;-62
2022/12/13 07:34:24;;;;;;;15.88;10.57;;;;;;;;;;5092756;28;20189;-62
2022/12/13 07:36:51;;;;;;;18.17;13.32;;;;;;;;;;5092911;28;20209;-62
2022/12/13 07:39:18;;;;;;;17.83;13.35;;;;;;;;;;5092969;28;20238;-62
2022/12/13 07:41:45;;;;;;;16.98;11.20;;;;;;;;;;5096322;28;20552;-62
2022/12/13 07:44:12;;;;;;;13.88;10.55;;;;;;;;;;5096562;28;20200;-60
2022/12/13 07:46:39;;;;;;;13.15;10.63;;;;;;;;;;5096158;28;20220;-62
2022/12/13 07:49:06;;;;;;;18.05;11.48;;;;;;;;;;5096362;28;20294;-62
2022/12/13 07:51:34;;;;;;;17.02;10.70;;;;;;;;;;5096577;28;20193;-62
2022/12/13 07:54:02;;;;;;;17.30;12.15;;;;;;;;;;5096426;28;20190;-62
2022/12/13 07:56:29;;;;;;;16.50;11.57;;;;;;;;;;5096380;28;20640;-62
2022/12/13 07:58:56;;;;;;;17.40;12.05;;;;;;;;;;5096562;28;20185;-62
2022/12/13 08:01:22;;;;;;;15.45;11.80;;;;;;;;;;5096460;28;20186;-62
2022/12/13 08:03:50;;;;;;;18.95;11.20;;;;;;;;;;5096651;28;20308;-62
2022/12/13 08:06:18;;;;;;;15.25;11.38;;;;;;;;;;5096391;28;20285;-62
2022/12/13 08:08:49;;;;;;;18.23;12.15;;;;;;;;;;5096472;28;20282;-62
2022/12/13 08:11:16;;;;;;;16.77;13.13;;;;;;;;;;5095741;28;20441;-62
2022/12/13 08:13:43;;;;;;;17.05;12.80;;;;;;;;;;5096432;28;20700;-62
2022/12/13 08:16:11;;;;;;;16.92;11.82;;;;;;;;;;5096418;28;20258;-62
2022/12/13 08:18:39;;;;;;;15.10;11.50;;;;;;;;;;5096246;28;20217;-60
2022/12/13 08:21:08;;;;;;;17.63;12.90;;;;;;;;;;5096057;28;20194;-59
2022/12/13 08:23:36;;;;;;;17.70;12.20;;;;;;;;;;5095847;28;20197;-64
2022/12/13 08:26:05;;;;;;;17.25;11.50;;;;;;;;;;5095993;28;20267;-61
2022/12/13 08:28:32;;;;;;;14.48;10.75;;;;;;;;;;5101109;28;20212;-68
2022/12/13 08:31:03;;;;;;;17.90;12.10;;;;;;;;;;5104004;28;20215;-72
2022/12/13 08:33:30;;;;;;;15.13;11.60;;;;;;;;;;5105990;28;20544;-72
2022/12/13 08:35:57;;;;;;;18.20;12.55;;;;;;;;;;5105682;28;20185;-71
2022/12/13 08:38:24;;;;;;;15.20;11.60;;;;;;;;;;5107205;28;20773;-61
2022/12/13 08:40:51;;;;;;;16.70;12.18;;;;;;;;;;5115857;28;20200;-61
2022/12/13 08:43:19;;;;;;;17.00;12.20;;;;;;;;;;5116052;28;20561;-62
2022/12/13 08:45:48;;;;;;;17.77;12.93;;;;;;;;;;5115717;28;20195;-64
2022/12/13 08:48:15;;;;;;;19.75;13.45;;;;;;;;;;5116026;28;20607;-64
2022/12/13 08:50:42;;;;;;;15.93;11.63;;;;;;;;;;5115965;28;20192;-70
2022/12/13 08:53:08;;;;;;;20.33;12.93;;;;;;;;;;5115784;28;20243;-62
2022/12/13 08:55:36;;;;;;;19.17;12.40;;;;;;;;;;5115761;28;20629;-61
2022/12/13 08:58:07;;;;;;;18.13;11.75;;;;;;;;;;5115503;28;20688;-60
2022/12/13 09:00:36;;;;;;;19.80;11.70;;;;;;;;;;5114379;28;20192;-60
2022/12/13 09:03:03;;;;;;;16.77;11.40;;;;;;;;;;5100863;28;20515;-62
2022/12/13 09:05:30;;;;;;;16.33;12.25;;;;;;;;;;5095162;28;20190;-65
2022/12/13 09:07:58;;;;;;;18.30;12.98;;;;;;;;;;5095016;28;20225;-65
2022/12/13 09:10:25;;;;;;;17.98;12.40;;;;;;;;;;5094740;28;20224;-64
2022/12/13 09:12:54;;;;;;;19.98;13.68;;;;;;;;;;5095201;28;20207;-65
2022/12/13 09:15:21;;;;;;;13.98;9.95;;;;;;;;;;5095148;28;20287;-65
2022/12/13 09:17:49;;;;;;;16.20;11.65;;;;;;;;;;5094813;28;20263;-64
2022/12/13 09:20:16;;;;;;;17.95;12.32;;;;;;;;;;5094850;28;20619;-64
2022/12/13 09:22:43;;;;;;;17.63;12.23;;;;;;;;;;5095200;28;20204;-62
2022/12/13 09:25:10;;;;;;;17.98;10.68;;;;;;;;;;5094591;28;20190;-61
2022/12/13 09:27:37;;;;;;;13.95;11.50;;;;;;;;;;5094719;28;20675;-62
2022/12/13 09:30:05;;;;;;;19.35;12.05;;;;;;;;;;5094752;28;20285;-61
2022/12/13 09:32:32;;;;;;;16.23;12.70;;;;;;;;;;5094681;28;20230;-65
2022/12/13 09:35:00;;;;;;;16.85;11.63;;;;;;;;;;5094591;28;20607;-64
2022/12/13 09:37:27;;;;;;;18.25;12.40;;;;;;;;;;5094617;28;20209;-64
2022/12/13 09:39:54;;;;;;;18.42;12.00;;;;;;;;;;5094750;28;20194;-69
2022/12/13 09:42:23;;;;;;;17.08;11.07;;;;;;;;;;5094469;28;20243;-63
2022/12/13 09:44:52;;;;;;;20.00;12.13;;;;;;;;;;5094420;28;20190;-66
2022/12/13 09:47:22;;;;;;;20.80;12.63;;;;;;;;;;5094092;28;20228;-62
2022/12/13 09:49:50;;;;;;;18.77;12.70;;;;;;;;;;5094030;28;20444;-68
2022/12/13 09:52:19;;;;;;;18.08;12.32;;;;;;;;;;5094316;28;20618;-64
2022/12/13 09:54:46;;;;;;;19.23;13.30;;;;;;;;;;5094154;28;20199;-73
2022/12/13 09:57:16;;;;;;;19.80;12.10;;;;;;;;;;5094091;28;20192;-66
2022/12/13 09:59:43;;;;;;;14.68;10.70;;;;;;;;;;5094405;28;20517;-64
2022/12/13 10:02:16;;;;;;;18.50;13.05;;;;;;;;;;5093805;28;20277;-63
2022/12/13 10:04:43;;;;;;;16.40;11.20;;;;;;;;;;5093683;28;20572;-66
2022/12/13 10:07:12;;;;;;;16.38;12.32;;;;;;;;;;5093863;28;20221;-70
2022/12/13 10:09:40;;;;;;;19.35;13.35;;;;;;;;;;5093959;28;20277;-61
2022/12/13 10:12:10;;;;;;;15.60;10.93;;;;;;;;;;5096052;28;20629;-69
2022/12/13 10:14:39;;;;;;;17.02;11.30;;;;;;;;;;5105371;28;20539;-68
2022/12/13 10:17:08;;;;;;;17.95;11.15;;;;;;;;;;5102846;28;20276;-65
2022/12/13 10:19:36;;;;;;;14.68;10.98;;;;;;;;;;5093652;28;20556;-61
2022/12/13 10:22:05;;;;;;;16.00;11.32;;;;;;;;;;5104150;28;20264;-70
2022/12/13 10:24:48;;;;;;;18.60;11.77;;;;;;;;;;5093644;28;20199;-62
2022/12/13 10:27:18;;;;;;;14.80;11.18;;;;;;;;;;5103371;28;20295;-61
2022/12/13 10:29:59;;;;;;;16.40;11.77;;;;;;;;;;5102350;28;20205;-65
2022/12/13 10:32:26;;;;;;;17.63;11.27;;;;;;;;;;5113589;28;20194;-61
2022/12/13 10:34:54;;;;;;;15.40;11.10;;;;;;;;;;5102904;28;20576;-62
2022/12/13 10:37:27;;;;;;;16.73;11.85;;;;;;;;;;5104078;28;20192;-68
2022/12/13 10:39:54;;;;;;;13.73;10.35;;;;;;;;;;5106558;28;20189;-65
2022/12/13 10:42:24;;;;;;;13.05;10.10;;;;;;;;;;5107912;28;20257;-65
2022/12/13 10:45:09;;;;;;;15.40;11.52;;;;;;;;;;5102618;28;20277;-64
2022/12/13 10:47:36;;;;;;;16.92;11.50;;;;;;;;;;5092673;28;20456;-64
2022/12/13 10:50:03;;;;;;;14.63;11.10;;;;;;;;;;5098223;28;20184;-60
2022/12/13 10:52:31;;;;;;;12.82;10.18;;;;;;;;;;5110348;28;20195;-62
2022/12/13 10:55:01;;;;;;;15.15;11.48;;;;;;;;;;5113715;28;20644;-64
2022/12/13 10:57:29;;;;;;;14.23;10.48;;;;;;;;;;5092651;28;20293;-66
2022/12/13 10:59:56;;;;;;;14.73;10.23;;;;;;;;;;5097938;28;20269;-63
2022/12/13 11:02:28;;;;;;;14.52;10.40;;;;;;;;;;5093104;28;20193;-63
2022/12/13 11:04:57;;;;;;;14.48;10.98;;;;;;;;;;5092826;28;20540;-64
2022/12/13 11:07:26;;;;;;;17.23;11.32;;;;;;;;;;5093067;28;20230;-64
2022/12/13 11:09:53;;;;;;;16.98;11.23;;;;;;;;;;5092937;28;20557;-64
2022/12/13 11:12:21;;;;;;;20.58;11.73;;;;;;;;;;5093060;28;20272;-64
2022/12/13 11:14:53;;;;;;;17.42;11.23;;;;;;;;;;5091984;28;20189;-63
2022/12/13 11:17:22;;;;;;;12.05;9.48;;;;;;;;;;5092639;28;20281;-64
2022/12/13 11:19:50;;;;;;;16.02;10.25;;;;;;;;;;5092880;28;20311;-63
2022/12/13 11:22:20;;;;;;;14.45;10.48;;;;;;;;;;5092932;28;20276;-64
2022/12/13 11:24:51;;;;;;;14.30;10.40;;;;;;;;;;5092499;28;20248;-64
2022/12/13 11:27:23;;;;;;;16.83;11.80;;;;;;;;;;5092514;28;20194;-63
2022/12/13 11:30:00;;;;;;;13.48;9.68;;;;;;;;;;5096980;28;20188;-61
2022/12/13 11:32:35;;;;;;;18.05;10.55;;;;;;;;;;5092105;28;20188;-69
2022/12/13 11:35:08;;;;;;;14.55;11.32;;;;;;;;;;5092475;28;20224;-67
2022/12/13 11:37:42;;;;;;;15.75;10.27;;;;;;;;;;5092402;28;20640;-67
2022/12/13 11:40:12;;;;;;;16.40;10.32;;;;;;;;;;5095028;28;20194;-66
2022/12/13 11:42:41;;;;;;;14.95;11.23;;;;;;;;;;5104068;28;20261;-70
2022/12/13 11:45:13;;;;;;;15.50;11.48;;;;;;;;;;5113036;28;20228;-64
2022/12/13 11:47:43;;;;;;;16.90;11.57;;;;;;;;;;5112609;28;20304;-74
2022/12/13 11:50:15;;;;;;;16.95;11.18;;;;;;;;;;5112692;28;20190;-63
2022/12/13 11:52:45;;;;;;;15.20;10.90;;;;;;;;;;5113029;28;20264;-63
2022/12/13 11:55:16;;;;;;;18.75;12.90;;;;;;;;;;5112931;28;20276;-69
2022/12/13 11:57:46;;;;;;;15.07;10.80;;;;;;;;;;5112580;28;20715;-65
2022/12/13 12:00:27;;;;;;;16.20;10.43;;;;;;;;;;5112842;28;20314;-66
2022/12/13 12:02:56;;;;;;;16.33;11.32;;;;;;;;;;5108918;28;20185;-67
2022/12/13 12:05:28;;;;;;;13.23;9.80;;;;;;;;;;5092661;28;20186;-62
2022/12/13 12:07:57;;;;;;;14.07;10.23;;;;;;;;;;5092444;28;20218;-67
2022/12/13 12:10:27;;;;;;;15.10;11.25;;;;;;;;;;5092339;28;20291;-68
2022/12/13 12:12:57;;;;;;;16.00;10.85;;;;;;;;;;5092297;28;20284;-64
2022/12/13 12:15:27;;;;;;;18.27;12.40;;;;;;;;;;5092159;28;20196;-63
2022/12/13 12:17:54;;;;;;;14.95;10.10;;;;;;;;;;5091733;28;20641;-63
2022/12/13 12:20:24;;;;;;;11.93;9.25;;;;;;;;;;5092246;28;20194;-62
2022/12/13 12:22:55;;;;;;;17.80;13.30;;;;;;;;;;5092252;28;20618;-62
2022/12/13 12:25:28;;;;;;;16.42;11.15;;;;;;;;;;5092275;28;20191;-63
2022/12/13 12:28:00;;;;;;;15.80;10.35;;;;;;;;;;5095388;28;20209;-61
2022/12/13 12:30:34;;;;;;;16.77;11.88;;;;;;;;;;5095633;28;20266;-63
2022/12/13 12:33:05;;;;;;;44.67;31.60;;;;;;;;;;5095556;28;20713;-61
2022/12/13 12:35:37;;;;;;;22.15;14.52;;;;;;;;;;5095866;28;20193;-62
2022/12/13 12:38:11;;;;;;;10.32;8.68;;;;;;;;;;5095684;28;20576;-59
2022/12/13 12:40:54;;;;;;;10.50;8.00;;;;;;;;;;5095499;28;20248;-60
2022/12/13 12:43:24;;;;;;;13.90;10.40;;;;;;;;;;5095706;28;20276;-61
2022/12/13 12:45:57;;;;;;;11.18;8.57;;;;;;;;;;5095205;28;20194;-61
2022/12/13 12:48:37;;;;;;;21.27;13.48;;;;;;;;;;5095581;28;20263;-63
2022/12/13 12:51:07;;;;;;;14.63;9.10;;;;;;;;;;5095207;28;20199;-65
2022/12/13 12:53:38;;;;;;;14.23;9.38;;;;;;;;;;5095613;28;20190;-61
2022/12/13 12:56:19;;;;;;;18.40;12.70;;;;;;;;;;5095546;28;20204;-62
2022/12/13 12:58:51;;;;;;;18.80;13.02;;;;;;;;;;5095241;28;20289;-61
2022/12/13 13:01:25;;;;;;;17.77;11.75;;;;;;;;;;5095181;28;20194;-64
2022/12/13 13:03:54;;;;;;;16.50;9.57;;;;;;;;;;5095513;28;20659;-57
2022/12/13 13:06:23;;;;;;;19.25;10.70;;;;;;;;;;5095265;28;20186;-62
2022/12/13 13:08:55;;;;;;;12.88;9.07;;;;;;;;;;5095035;28;20291;-64
2022/12/13 13:11:23;;;;;;;13.20;8.73;;;;;;;;;;5095027;28;20645;-62
2022/12/13 13:14:01;;;;;;;12.40;10.05;;;;;;;;;;5094846;28;20284;-62
2022/12/13 13:16:31;;;;;;;13.63;8.88;;;;;;;;;;5095114;28;20232;-77
2022/12/13 13:18:58;;;;;;;14.25;9.35;;;;;;;;;;5094874;28;20569;-75
2022/12/13 13:21:27;;;;;;;11.95;8.43;;;;;;;;;;5095167;28;20280;-74
2022/12/13 13:24:05;;;;;;;12.52;8.45;;;;;;;;;;5094806;28;20190;-69
2022/12/13 13:26:32;;;;;;;13.00;10.43;;;;;;;;;;5095011;28;20281;-74
2022/12/13 13:29:14;;;;;;;12.10;8.77;;;;;;;;;;5095125;28;20189;-63
2022/12/13 13:31:56;;;;;;;10.02;8.90;;;;;;;;;;5094368;28;20538;-63
2022/12/13 13:34:24;;;;;;;12.15;9.50;;;;;;;;;;5094629;28;20193;-63
2022/12/13 13:36:52;;;;;;;12.05;9.13;;;;;;;;;;5094572;28;20712;-57
2022/12/13 13:39:19;;;;;;;11.93;9.23;;;;;;;;;;5093374;28;20221;-59
2022/12/13 13:42:07;;;;;;;18.45;9.38;;;;;;;;;;5094712;28;20190;-57
2022/12/13 13:44:36;;;;;;;10.80;8.15;;;;;;;;;;5094458;28;20288;-56
2022/12/13 13:47:14;;;;;;;12.25;8.50;;;;;;;;;;5094145;28;20225;-58
2022/12/13 13:49:45;;;;;;;11.98;8.65;;;;;;;;;;5094468;28;20216;-58
2022/12/13 13:52:18;;;;;;;13.07;8.77;;;;;;;;;;5094474;28;20649;-58
2022/12/13 13:54:58;;;;;;;12.90;8.38;;;;;;;;;;5101058;28;20187;-58
2022/12/13 13:57:40;;;;;;;11.50;8.48;;;;;;;;;;5103736;28;20261;-57
2022/12/13 14:00:13;;;;;;;12.30;9.02;;;;;;;;;;5093601;28;20214;-59
2022/12/13 14:02:58;;;;;;;13.07;9.57;;;;;;;;;;5096068;28;20177;-57
2022/12/13 14:05:53;;;;;;;11.05;8.30;;;;;;;;;;5093484;28;20183;-58
2022/12/13 14:08:27;;;;;;;14.63;10.10;;;;;;;;;;5093647;28;20189;-59
2022/12/13 14:11:11;;;;;;;15.20;10.25;;;;;;;;;;5094076;28;20185;-58
2022/12/13 14:14:08;;;;;;;12.75;9.50;;;;;;;;;;5093815;28;20186;-58
2022/12/13 14:17:09;;;;;;;17.30;10.65;;;;;;;;;;5093833;28;20276;-57
2022/12/13 14:20:00;;;;;;;16.33;10.18;;;;;;;;;;5093574;28;20217;-57
2022/12/13 14:22:30;;;;;;;14.65;9.70;;;;;;;;;;5093703;28;20201;-57
2022/12/13 14:25:04;;;;;;;17.17;10.48;;;;;;;;;;5093681;28;20728;-57
2022/12/13 14:27:39;;;;;;;14.30;9.77;;;;;;;;;;5093726;28;20195;-58
2022/12/13 14:30:07;;;;;;;15.20;10.88;;;;;;;;;;5093640;28;20202;-59
2022/12/13 14:32:36;;;;;;;12.13;9.02;;;;;;;;;;5093483;28;20201;-57
2022/12/13 14:35:05;;;;;;;14.75;11.02;;;;;;;;;;5093544;28;20659;-58
2022/12/13 14:37:33;;;;;;;16.33;10.23;;;;;;;;;;5092802;28;20280;-58
2022/12/13 14:40:00;;;;;;;16.02;10.02;;;;;;;;;;5093059;28;20323;-57
2022/12/13 14:42:29;;;;;;;16.52;11.07;;;;;;;;;;5093182;28;20197;-57